Juliustown, New Jersey
Current Conditions -  °F | °C
As of 1:58 PM on Thursday 18 Dec 2014 (Local Time) from KWRI Reporting Station
Broken Clouds Broken Clouds  
Wind Chill: 33°   Ceiling: 4000
Heat Index: 41°   Visibility: 10mi
Dew Point: 23°   Wind: 15mph
Humidity: 49%   Direction: 300°WNW
Pressure: 29.97"   Gusts: NA
Location:  40.01°N, 74.67°W
Report Text: KWRI 181858Z AUTO 30013KT 10SM BKN040 05/M05 A2997 RMK AO2 SLP153 T00501049
Loading
Personal Weather Stations






























Interactive Weather Map New forecast layout! Learn more

10-Day Weather Forecast

Advertisements
Track Severe Weather on mobile